createdAt,value
2018-06-08T00:00:32.785Z,99.90
2018-06-08T00:03:00.309Z,99.90
2018-06-08T00:05:27.861Z,99.90
2018-06-08T00:07:55.409Z,99.90
2018-06-08T00:10:22.985Z,99.90
2018-06-08T00:12:50.519Z,99.90
2018-06-08T00:15:18.051Z,99.90
2018-06-08T00:17:45.607Z,99.90
2018-06-08T00:20:13.131Z,99.90
2018-06-08T00:22:40.655Z,99.90
2018-06-08T00:25:08.219Z,99.90
2018-06-08T00:27:35.739Z,99.90
2018-06-08T00:30:03.387Z,99.90
2018-06-08T00:32:31.061Z,99.90
2018-06-08T00:34:58.601Z,99.90
2018-06-08T00:37:26.186Z,99.90
2018-06-08T00:39:53.747Z,99.90
2018-06-08T00:42:21.299Z,99.90
2018-06-08T00:44:48.841Z,99.90
2018-06-08T00:47:16.365Z,99.90
2018-06-08T00:49:43.903Z,99.90
2018-06-08T00:52:11.419Z,99.90
2018-06-08T00:54:39.080Z,99.90
2018-06-08T00:57:07.985Z,99.90
2018-06-08T00:59:35.669Z,99.90
2018-06-08T01:02:03.252Z,99.90
2018-06-08T01:04:30.791Z,99.90
2018-06-08T01:06:58.335Z,99.90
2018-06-08T01:09:25.875Z,99.90
2018-06-08T01:11:53.441Z,99.90
2018-06-08T01:14:31.408Z,99.90
2018-06-08T01:16:59.376Z,99.90
2018-06-08T01:19:27.354Z,99.90
2018-06-08T01:21:54.997Z,99.90
2018-06-08T01:24:22.516Z,99.90
2018-06-08T01:26:50.136Z,99.90
2018-06-08T01:29:17.664Z,99.90
2018-06-08T01:31:45.178Z,99.90
2018-06-08T01:34:12.712Z,99.90
2018-06-08T01:36:40.238Z,99.90
2018-06-08T01:39:08.686Z,99.90
2018-06-08T01:41:36.378Z,99.90
2018-06-08T01:44:04.539Z,99.90
2018-06-08T01:46:32.082Z,99.90
2018-06-08T01:49:00.010Z,99.90
2018-06-08T01:51:27.626Z,99.90
2018-06-08T01:53:55.854Z,99.90
2018-06-08T01:56:23.408Z,99.90
2018-06-08T01:58:51.006Z,99.90
2018-06-08T02:01:18.637Z,99.90
2018-06-08T02:03:46.143Z,99.90
2018-06-08T02:06:13.683Z,99.90
2018-06-08T02:08:41.225Z,99.90
2018-06-08T02:11:08.767Z,99.90
2018-06-08T02:13:36.294Z,99.90
2018-06-08T02:16:03.810Z,99.90
2018-06-08T02:18:31.309Z,99.90
2018-06-08T02:20:58.853Z,99.90
2018-06-08T02:23:26.376Z,99.90
2018-06-08T02:25:53.994Z,99.90
2018-06-08T02:28:21.588Z,99.90
2018-06-08T02:30:49.103Z,99.90
2018-06-08T02:33:16.712Z,99.90
2018-06-08T02:35:44.296Z,99.90
2018-06-08T02:38:11.806Z,99.90
2018-06-08T02:40:39.349Z,99.90
2018-06-08T02:43:07.060Z,99.90
2018-06-08T02:45:34.630Z,99.90
2018-06-08T02:48:02.160Z,99.90
2018-06-08T02:50:29.712Z,99.90
2018-06-08T02:52:57.280Z,99.90
2018-06-08T02:55:24.863Z,99.90
2018-06-08T02:57:52.409Z,99.90
2018-06-08T03:00:20.007Z,99.90
2018-06-08T03:02:47.544Z,99.90
2018-06-08T03:05:15.129Z,99.90
2018-06-08T03:07:42.636Z,99.90
2018-06-08T03:10:10.156Z,99.90
2018-06-08T03:12:37.726Z,99.90
2018-06-08T03:15:06.318Z,99.90
2018-06-08T03:17:33.838Z,99.90
2018-06-08T03:20:01.430Z,99.90
2018-06-08T03:22:29.005Z,99.90
2018-06-08T03:24:56.553Z,99.90
2018-06-08T03:27:24.085Z,99.90
2018-06-08T03:29:51.599Z,99.90
2018-06-08T03:32:19.226Z,99.90
2018-06-08T03:34:46.734Z,99.90
2018-06-08T03:37:14.270Z,99.90
2018-06-08T03:39:41.769Z,99.90
2018-06-08T03:42:09.409Z,99.90
2018-06-08T03:47:04.450Z,99.90
2018-06-08T03:51:59.450Z,99.80
2018-06-08T03:54:26.965Z,99.50
2018-06-08T03:56:54.515Z,99.00
2018-06-08T03:59:22.078Z,98.80
2018-06-08T04:01:49.662Z,98.70
2018-06-08T04:04:17.211Z,98.50
2018-06-08T04:06:44.766Z,98.60
2018-06-08T04:09:12.292Z,98.50
2018-06-08T04:11:39.841Z,98.40
2018-06-08T04:14:07.383Z,98.20
2018-06-08T04:16:34.962Z,98.20
2018-06-08T04:19:02.526Z,98.00
2018-06-08T04:21:30.076Z,97.90
2018-06-08T04:23:57.613Z,97.90
2018-06-08T04:26:25.269Z,98.20
2018-06-08T04:28:52.844Z,98.50
2018-06-08T04:31:20.404Z,98.70
2018-06-08T04:33:47.990Z,98.90
2018-06-08T04:36:15.538Z,99.00
2018-06-08T04:38:43.084Z,99.10
2018-06-08T04:41:10.618Z,99.20
2018-06-08T04:43:38.190Z,99.20
2018-06-08T04:46:05.696Z,99.20
2018-06-08T04:48:33.218Z,99.30
2018-06-08T04:51:00.791Z,99.30
2018-06-08T04:53:28.342Z,99.40
2018-06-08T04:55:55.886Z,99.50
2018-06-08T04:58:23.422Z,99.60
2018-06-08T05:00:50.972Z,99.50
2018-06-08T05:03:18.502Z,99.40
2018-06-08T05:05:46.077Z,99.30
2018-06-08T05:08:13.630Z,99.20
2018-06-08T05:10:41.152Z,99.30
2018-06-08T05:13:08.804Z,99.30
2018-06-08T05:15:36.365Z,99.40
2018-06-08T05:18:03.972Z,99.50
2018-06-08T05:20:31.545Z,99.60
2018-06-08T05:22:59.240Z,99.70
2018-06-08T05:25:26.868Z,99.90
2018-06-08T05:27:54.475Z,99.90
2018-06-08T05:30:23.995Z,99.90
2018-06-08T05:32:51.597Z,99.90
2018-06-08T05:35:19.157Z,99.90
2018-06-08T05:37:46.745Z,99.90
2018-06-08T05:40:14.280Z,99.90
2018-06-08T05:42:41.814Z,99.90
2018-06-08T05:45:09.382Z,99.90
2018-06-08T05:47:36.935Z,99.90
2018-06-08T05:50:04.465Z,99.90
2018-06-08T05:52:32.009Z,99.70
2018-06-08T05:54:59.607Z,99.70
2018-06-08T05:57:27.159Z,99.50
2018-06-08T05:59:54.663Z,99.20
2018-06-08T06:02:22.241Z,99.00
2018-06-08T06:04:49.793Z,99.10
2018-06-08T06:07:17.387Z,99.10
2018-06-08T06:09:44.960Z,98.80
2018-06-08T06:12:12.506Z,98.90
2018-06-08T06:14:40.026Z,98.80
2018-06-08T06:17:08.415Z,98.70
2018-06-08T06:19:36.062Z,98.60
2018-06-08T06:24:37.658Z,98.00
2018-06-08T06:27:05.191Z,97.90
2018-06-08T06:29:32.724Z,97.90
2018-06-08T06:32:00.293Z,97.80
2018-06-08T06:34:27.888Z,97.70
2018-06-08T06:36:55.468Z,97.60
2018-06-08T06:39:23.062Z,97.50
2018-06-08T06:41:50.613Z,97.40
2018-06-08T06:44:18.162Z,97.40
2018-06-08T06:46:45.667Z,97.40
2018-06-08T06:49:13.210Z,97.30
2018-06-08T06:51:40.769Z,97.30
2018-06-08T06:54:08.338Z,97.10
2018-06-08T06:56:35.861Z,97.00
2018-06-08T06:59:03.474Z,96.80
2018-06-08T07:01:31.140Z,96.60
2018-06-08T07:03:58.688Z,96.70
2018-06-08T07:06:26.226Z,96.70
2018-06-08T07:08:53.780Z,96.80
2018-06-08T07:11:21.282Z,96.80
2018-06-08T07:13:48.833Z,97.00
2018-06-08T07:16:16.373Z,97.20
2018-06-08T07:18:43.976Z,97.40
2018-06-08T07:21:11.523Z,97.30
2018-06-08T07:23:39.072Z,97.10
2018-06-08T07:26:06.621Z,97.00
2018-06-08T07:28:34.169Z,97.20
2018-06-08T07:31:01.720Z,97.30
2018-06-08T07:33:29.307Z,97.30
2018-06-08T07:35:56.875Z,97.10
2018-06-08T07:38:24.423Z,97.00
2018-06-08T07:40:52.011Z,96.60
2018-06-08T07:43:19.561Z,96.60
2018-06-08T07:45:47.129Z,96.60
2018-06-08T07:48:14.693Z,96.50
2018-06-08T07:50:42.235Z,96.40
2018-06-08T07:53:10.095Z,95.90
2018-06-08T07:55:37.639Z,95.70
2018-06-08T07:58:05.247Z,95.50
2018-06-08T08:00:32.800Z,95.40
2018-06-08T08:03:00.333Z,95.20
2018-06-08T08:05:27.875Z,95.20
2018-06-08T08:07:55.426Z,95.10
2018-06-08T08:10:22.992Z,94.80
2018-06-08T08:12:50.500Z,94.60
2018-06-08T08:15:18.057Z,94.30
2018-06-08T08:17:45.570Z,94.10
2018-06-08T08:20:13.173Z,94.20
2018-06-08T08:22:40.719Z,94.30
2018-06-08T08:25:08.597Z,94.10
2018-06-08T08:27:36.142Z,93.80
2018-06-08T08:30:03.878Z,93.60
2018-06-08T08:32:31.443Z,93.50
2018-06-08T08:34:59.021Z,93.30
2018-06-08T08:37:26.573Z,93.00
2018-06-08T08:39:54.093Z,92.80
2018-06-08T08:42:21.585Z,92.80
2018-06-08T08:44:49.157Z,92.40
2018-06-08T08:52:11.718Z,91.30
2018-06-08T08:54:39.354Z,91.00
2018-06-08T08:57:06.952Z,90.90
2018-06-08T09:02:01.947Z,90.80
2018-06-08T09:04:29.506Z,90.70
2018-06-08T09:06:57.079Z,90.40
2018-06-08T09:09:24.651Z,90.00
2018-06-08T09:11:52.186Z,88.30
2018-06-08T09:14:19.805Z,87.80
2018-06-08T09:16:47.399Z,87.60
2018-06-08T09:19:15.019Z,87.60
2018-06-08T09:21:42.534Z,86.40
2018-06-08T09:24:10.108Z,83.80
2018-06-08T09:26:37.624Z,82.90
2018-06-08T09:29:05.150Z,82.70
2018-06-08T09:31:32.658Z,82.10
2018-06-08T09:34:00.242Z,81.10
2018-06-08T09:36:27.774Z,78.80
2018-06-08T09:38:55.307Z,78.40
2018-06-08T09:41:22.881Z,77.60
2018-06-08T09:43:50.424Z,76.90
2018-06-08T09:46:18.012Z,76.30
2018-06-08T09:48:45.564Z,76.70
2018-06-08T09:51:13.115Z,75.40
2018-06-08T09:53:40.691Z,74.90
2018-06-08T09:56:08.256Z,75.50
2018-06-08T09:58:35.850Z,74.60
2018-06-08T10:01:03.466Z,74.30
2018-06-08T10:03:31.017Z,72.20
2018-06-08T10:05:58.610Z,70.30
2018-06-08T10:08:26.201Z,69.50
2018-06-08T10:10:53.767Z,68.40
2018-06-08T10:13:21.303Z,65.70
2018-06-08T10:15:48.845Z,64.70
2018-06-08T10:18:16.376Z,63.30
2018-06-08T10:20:43.979Z,61.50
2018-06-08T10:23:11.857Z,59.10
2018-06-08T10:25:39.413Z,58.80
2018-06-08T10:28:06.949Z,57.80
2018-06-08T10:30:34.482Z,58.00
2018-06-08T10:33:02.039Z,57.30
2018-06-08T10:35:29.599Z,57.50
2018-06-08T10:37:57.129Z,57.50
2018-06-08T10:40:24.669Z,56.90
2018-06-08T10:42:52.203Z,55.80
2018-06-08T10:45:19.799Z,54.10
2018-06-08T10:47:47.364Z,53.60
2018-06-08T10:50:14.909Z,52.70
2018-06-08T10:52:42.504Z,51.50
2018-06-08T10:55:10.049Z,50.40
2018-06-08T10:57:37.597Z,48.90
2018-06-08T11:00:05.240Z,49.40
2018-06-08T11:02:32.809Z,49.80
2018-06-08T11:05:00.363Z,50.10
2018-06-08T11:07:27.884Z,49.50
2018-06-08T11:09:55.426Z,49.00
2018-06-08T11:12:22.980Z,48.50
2018-06-08T11:14:50.522Z,48.00
2018-06-08T11:17:18.078Z,47.70
2018-06-08T11:19:45.736Z,47.20
2018-06-08T11:22:13.273Z,46.40
2018-06-08T11:24:40.818Z,47.40
2018-06-08T11:27:08.353Z,46.80
2018-06-08T11:29:35.857Z,46.50
2018-06-08T11:32:03.457Z,46.40
2018-06-08T11:34:30.971Z,46.00
2018-06-08T11:36:58.513Z,45.80
2018-06-08T11:39:26.054Z,46.10
2018-06-08T11:41:53.616Z,47.10
2018-06-08T11:44:21.158Z,48.30
2018-06-08T11:46:48.707Z,49.30
2018-06-08T11:49:16.252Z,50.10
2018-06-08T11:51:43.911Z,50.90
2018-06-08T11:54:11.532Z,51.70
2018-06-08T11:56:39.078Z,51.00
2018-06-08T11:59:06.604Z,49.60
2018-06-08T12:01:34.138Z,48.20
2018-06-08T12:04:01.661Z,48.40
2018-06-08T12:06:29.236Z,48.10
2018-06-08T12:08:56.825Z,47.40
2018-06-08T12:11:24.366Z,46.40
2018-06-08T12:13:51.928Z,45.50
2018-06-08T12:16:19.478Z,44.70
2018-06-08T12:18:47.013Z,44.20
2018-06-08T12:21:14.619Z,43.90
2018-06-08T12:23:42.155Z,43.50
2018-06-08T12:26:09.704Z,42.80
2018-06-08T12:28:37.248Z,42.20
2018-06-08T12:31:04.788Z,40.20
2018-06-08T12:33:32.314Z,40.10
2018-06-08T12:35:59.860Z,40.60
2018-06-08T12:38:27.393Z,40.50
2018-06-08T12:40:54.986Z,39.70
2018-06-08T12:43:22.536Z,38.50
2018-06-08T12:45:50.068Z,38.20
2018-06-08T12:48:17.614Z,37.60
2018-06-08T12:50:45.224Z,38.00
2018-06-08T12:53:13.153Z,39.10
2018-06-08T12:55:40.763Z,40.30
2018-06-08T12:58:08.319Z,40.60
2018-06-08T13:00:35.832Z,39.40
2018-06-08T13:03:03.858Z,37.90
2018-06-08T13:05:31.379Z,37.70
2018-06-08T13:07:58.942Z,38.30
2018-06-08T13:10:26.461Z,39.50
2018-06-08T13:12:53.974Z,40.30
2018-06-08T13:15:21.519Z,40.80
2018-06-08T13:17:49.085Z,41.80
2018-06-08T13:20:16.607Z,42.70
2018-06-08T13:22:44.147Z,43.10
2018-06-08T13:25:11.995Z,43.70
2018-06-08T13:27:39.683Z,44.60
2018-06-08T13:30:07.278Z,45.50
2018-06-08T13:32:34.855Z,46.50
2018-06-08T13:35:02.474Z,47.30
2018-06-08T13:37:30.018Z,48.20
2018-06-08T13:39:57.572Z,49.50
2018-06-08T13:42:25.139Z,49.90
2018-06-08T13:44:52.684Z,47.90
2018-06-08T13:47:20.234Z,47.60
2018-06-08T13:49:47.814Z,49.10
2018-06-08T13:52:15.460Z,50.60
2018-06-08T13:54:43.014Z,51.90
2018-06-08T13:57:10.594Z,53.50
2018-06-08T13:59:38.139Z,55.40
2018-06-08T14:02:05.757Z,58.00
2018-06-08T14:04:33.305Z,59.20
2018-06-08T14:07:00.902Z,64.40
2018-06-08T14:09:28.482Z,68.80
2018-06-08T14:11:56.115Z,72.00
2018-06-08T14:14:24.485Z,74.00
2018-06-08T14:16:52.071Z,75.80
2018-06-08T14:19:19.643Z,77.60
2018-06-08T14:21:47.319Z,80.90
2018-06-08T14:24:14.874Z,85.00
2018-06-08T14:26:42.447Z,91.10
2018-06-08T14:29:09.982Z,92.90
2018-06-08T14:31:37.565Z,93.90
2018-06-08T14:34:05.173Z,94.50
2018-06-08T14:36:32.727Z,94.50
2018-06-08T14:39:00.283Z,94.70
2018-06-08T14:41:27.873Z,94.80
2018-06-08T14:43:55.474Z,94.50
2018-06-08T14:46:23.077Z,94.10
2018-06-08T14:48:50.691Z,94.40
2018-06-08T14:51:18.258Z,94.80
2018-06-08T14:53:45.875Z,95.00
2018-06-08T14:56:13.397Z,95.00
2018-06-08T14:58:40.948Z,95.30
2018-06-08T15:01:08.484Z,95.70
2018-06-08T15:03:36.044Z,96.20
2018-06-08T15:06:03.586Z,96.60
2018-06-08T15:08:31.161Z,96.80
2018-06-08T15:10:58.736Z,97.00
2018-06-08T15:13:26.303Z,97.20
2018-06-08T15:15:53.887Z,97.30
2018-06-08T15:18:21.445Z,97.30
2018-06-08T15:20:49.023Z,97.60
2018-06-08T15:23:16.582Z,97.70
2018-06-08T15:25:44.139Z,97.90
2018-06-08T15:28:11.741Z,97.90
2018-06-08T15:30:39.307Z,98.10
2018-06-08T15:33:06.910Z,98.30
2018-06-08T15:35:34.477Z,98.50
2018-06-08T15:38:02.058Z,98.80
2018-06-08T15:40:29.712Z,99.00
2018-06-08T15:42:57.217Z,98.90
2018-06-08T15:45:24.801Z,98.90
2018-06-08T15:47:52.374Z,99.20
2018-06-08T15:50:19.928Z,99.90
2018-06-08T15:52:47.485Z,99.90
2018-06-08T15:55:15.086Z,99.90
2018-06-08T15:57:42.629Z,99.90
2018-06-08T16:00:10.209Z,99.90
2018-06-08T16:02:37.802Z,99.90
2018-06-08T16:05:05.564Z,99.50
2018-06-08T16:07:33.122Z,99.00
2018-06-08T16:10:00.683Z,98.90
2018-06-08T16:12:28.274Z,98.80
2018-06-08T16:14:55.846Z,99.00
2018-06-08T16:17:23.406Z,98.80
2018-06-08T16:19:50.954Z,98.80
2018-06-08T16:22:18.511Z,98.20
2018-06-08T16:24:46.172Z,97.70
2018-06-08T16:27:14.029Z,97.30
2018-06-08T16:29:41.740Z,97.20
2018-06-08T16:32:09.394Z,97.10
2018-06-08T16:34:37.064Z,97.40
2018-06-08T16:37:04.926Z,97.50
2018-06-08T16:39:32.692Z,97.40
2018-06-08T16:42:00.388Z,97.40
2018-06-08T16:44:28.015Z,97.50
2018-06-08T16:46:55.604Z,97.50
2018-06-08T16:49:23.236Z,97.10
2018-06-08T16:51:50.827Z,96.70
2018-06-08T16:54:18.698Z,96.70
2018-06-08T16:56:46.320Z,96.80
2018-06-08T16:59:14.122Z,96.60
2018-06-08T17:01:41.711Z,96.40
2018-06-08T17:04:09.289Z,95.50
2018-06-08T17:06:36.870Z,95.20
2018-06-08T17:09:05.843Z,95.40
2018-06-08T17:11:33.414Z,94.80
2018-06-08T17:14:00.952Z,95.00
2018-06-08T17:16:28.556Z,94.80
2018-06-08T17:18:56.118Z,94.10
2018-06-08T17:21:23.727Z,93.80
2018-06-08T17:23:51.336Z,93.30
2018-06-08T17:26:18.851Z,93.40
2018-06-08T17:28:46.404Z,93.70
2018-06-08T17:31:14.263Z,93.90
2018-06-08T17:33:41.848Z,93.90
2018-06-08T17:36:09.443Z,93.90
2018-06-08T17:38:37.044Z,94.00
2018-06-08T17:41:04.639Z,94.60
2018-06-08T17:43:32.271Z,95.00
2018-06-08T17:45:59.898Z,94.90
2018-06-08T17:48:27.458Z,94.90
2018-06-08T17:50:54.997Z,94.90
2018-06-08T17:53:22.563Z,95.10
2018-06-08T17:55:50.128Z,95.40
2018-06-08T17:58:17.703Z,95.50
2018-06-08T18:00:45.243Z,95.80
2018-06-08T18:03:12.763Z,96.00
2018-06-08T18:05:40.337Z,96.00
2018-06-08T18:08:07.872Z,96.30
2018-06-08T18:10:35.422Z,96.50
2018-06-08T18:13:03.035Z,96.70
2018-06-08T18:15:30.635Z,96.80
2018-06-08T18:17:58.273Z,97.20
2018-06-08T18:20:25.797Z,97.50
2018-06-08T18:22:53.345Z,97.50
2018-06-08T18:25:20.899Z,97.50
2018-06-08T18:27:48.505Z,97.60
2018-06-08T18:30:16.088Z,97.70
2018-06-08T18:32:43.678Z,97.90
2018-06-08T18:35:11.285Z,98.30
2018-06-08T18:37:38.877Z,98.40
2018-06-08T18:40:06.480Z,98.40
2018-06-08T18:42:34.306Z,98.30
2018-06-08T18:45:01.881Z,98.30
2018-06-08T18:47:29.438Z,98.60
2018-06-08T18:49:57.018Z,98.90
2018-06-08T18:52:24.579Z,99.20
2018-06-08T18:54:52.144Z,99.40
2018-06-08T18:57:19.734Z,99.70
2018-06-08T18:59:47.274Z,99.90
2018-06-08T19:02:14.832Z,99.90
2018-06-08T19:04:42.416Z,99.90
2018-06-08T19:07:09.986Z,99.90
2018-06-08T19:09:37.534Z,99.90
2018-06-08T19:12:05.127Z,99.90
2018-06-08T19:14:32.685Z,99.90
2018-06-08T19:17:00.270Z,99.90
2018-06-08T19:19:27.938Z,99.90
2018-06-08T19:21:55.607Z,99.90
2018-06-08T19:24:23.203Z,99.90
2018-06-08T19:26:50.811Z,99.90
2018-06-08T19:29:18.387Z,99.90
2018-06-08T19:31:45.916Z,99.90
2018-06-08T19:34:13.507Z,99.90
2018-06-08T19:36:41.094Z,99.90
2018-06-08T19:39:08.953Z,99.90
2018-06-08T19:41:36.797Z,99.90
2018-06-08T19:44:04.355Z,99.90
2018-06-08T19:46:32.097Z,99.90
2018-06-08T19:48:59.836Z,99.90
2018-06-08T19:51:27.446Z,99.90
2018-06-08T19:53:55.051Z,99.90
2018-06-08T19:56:22.773Z,99.90
2018-06-08T19:58:50.460Z,99.90
2018-06-08T20:01:18.161Z,99.90
2018-06-08T20:03:45.744Z,99.90
2018-06-08T20:06:13.382Z,99.90
2018-06-08T20:08:41.034Z,99.90
2018-06-08T20:11:08.810Z,99.90
2018-06-08T20:13:36.455Z,99.90
2018-06-08T20:16:04.167Z,99.90
2018-06-08T20:18:31.803Z,99.90
2018-06-08T20:20:59.428Z,99.90
2018-06-08T20:23:27.281Z,99.90
2018-06-08T20:25:54.889Z,99.90
2018-06-08T20:28:22.569Z,99.90
2018-06-08T20:30:50.223Z,99.90
2018-06-08T20:33:17.877Z,99.90
2018-06-08T20:35:45.509Z,99.90
2018-06-08T20:38:13.155Z,99.90
2018-06-08T20:40:40.819Z,99.90
2018-06-08T20:43:08.570Z,99.90
2018-06-08T20:45:36.178Z,99.90
2018-06-08T20:48:03.772Z,99.90
2018-06-08T20:50:31.398Z,99.90
2018-06-08T20:52:58.993Z,99.90
2018-06-08T20:55:26.559Z,99.90
2018-06-08T20:57:58.261Z,99.90
2018-06-08T21:00:25.901Z,99.90
2018-06-08T21:02:53.492Z,99.90
2018-06-08T21:05:21.046Z,99.90
2018-06-08T21:07:48.557Z,99.90
2018-06-08T21:10:16.107Z,99.90
2018-06-08T21:12:43.681Z,99.90
2018-06-08T21:15:11.253Z,99.90
2018-06-08T21:17:38.806Z,99.90
2018-06-08T21:20:06.350Z,99.90
2018-06-08T21:22:33.968Z,99.90
2018-06-08T21:25:01.528Z,99.90
2018-06-08T21:27:29.075Z,99.90
2018-06-08T21:29:56.738Z,99.90
2018-06-08T21:32:24.359Z,99.90
2018-06-08T21:34:51.914Z,99.90
2018-06-08T21:37:19.500Z,99.90
2018-06-08T21:42:14.533Z,99.90
2018-06-08T21:44:42.065Z,99.90
2018-06-08T21:47:09.644Z,99.90
2018-06-08T21:49:37.187Z,99.90
2018-06-08T21:54:32.252Z,99.90
2018-06-08T21:56:59.855Z,99.90
2018-06-08T21:59:27.375Z,99.90
2018-06-08T22:01:55.000Z,99.90
2018-06-08T22:04:22.577Z,99.90
2018-06-08T22:06:50.175Z,99.90
2018-06-08T22:09:18.674Z,99.90
2018-06-08T22:11:46.331Z,99.90
2018-06-08T22:14:13.865Z,99.90
2018-06-08T22:16:41.419Z,99.90
2018-06-08T22:19:09.047Z,99.90
2018-06-08T22:21:36.640Z,99.90
2018-06-08T22:24:04.233Z,99.90
2018-06-08T22:26:31.783Z,99.90
2018-06-08T22:28:59.433Z,99.90
2018-06-08T22:31:27.015Z,99.90
2018-06-08T22:33:54.542Z,99.90
2018-06-08T22:36:22.084Z,99.90
2018-06-08T22:38:50.459Z,99.90
2018-06-08T22:41:17.986Z,99.90
2018-06-08T22:43:45.730Z,99.90
2018-06-08T22:48:40.730Z,99.90
2018-06-08T22:51:08.343Z,99.90
2018-06-08T22:53:37.518Z,99.90
2018-06-08T22:56:05.094Z,99.90
2018-06-08T22:58:32.634Z,99.90
2018-06-08T23:01:00.217Z,99.90
2018-06-08T23:03:27.724Z,99.90
2018-06-08T23:05:55.270Z,99.90
2018-06-08T23:10:44.788Z,99.90
2018-06-08T23:13:12.348Z,99.90
2018-06-08T23:15:39.876Z,99.90
2018-06-08T23:18:07.420Z,99.90
2018-06-08T23:20:35.291Z,99.90
2018-06-08T23:23:02.943Z,99.90
2018-06-08T23:25:30.475Z,99.90
2018-06-08T23:27:57.989Z,99.90
2018-06-08T23:30:25.560Z,99.90
2018-06-08T23:32:53.113Z,99.90
2018-06-08T23:35:20.672Z,99.90
2018-06-08T23:37:48.211Z,99.90
2018-06-08T23:40:15.766Z,99.90
2018-06-08T23:42:43.347Z,99.90
2018-06-08T23:45:10.908Z,99.90
2018-06-08T23:47:38.498Z,99.90
2018-06-08T23:50:06.013Z,99.90
2018-06-08T23:52:33.570Z,99.90
2018-06-08T23:55:01.101Z,99.90
2018-06-08T23:57:28.705Z,99.90
2018-06-08T23:59:56.241Z,99.90
